Time;durP1;ratioP1;P1;durP2;ratioP2;P2;SDS_P1;SDS_P2;PMS_P1;PMS_P2;Temp;Humidity;BMP_temperature;BMP_pressure;BME280_temperature;BME280_humidity;BME280_pressure;Samples;Min_cycle;Max_cycle;Signal;HPM_P1;HPM_P2
2021/01/18 00:02:17;;;;;;;6.38;4.88;;;10.90;99.90;;;;;;4969386;28;20285;-52
2021/01/18 00:04:47;;;;;;;7.60;5.53;;;10.70;99.90;;;;;;4975685;28;20202;-49
2021/01/18 00:07:17;;;;;;;9.65;5.13;;;10.70;99.90;;;;;;4976334;28;20454;-52
2021/01/18 00:09:48;;;;;;;11.35;6.93;;;10.60;99.90;;;;;;4981602;28;20210;-53
2021/01/18 00:12:19;;;;;;;7.80;5.30;;;10.50;99.90;;;;;;4980922;28;20238;-51
2021/01/18 00:14:50;;;;;;;6.88;6.25;;;10.50;99.90;;;;;;4976560;28;20464;-50
2021/01/18 00:17:20;;;;;;;6.70;6.00;;;10.40;99.90;;;;;;4975324;28;20202;-48
2021/01/18 00:19:51;;;;;;;7.82;6.13;;;10.40;99.90;;;;;;4968054;28;20274;-49
2021/01/18 00:22:21;;;;;;;10.82;6.32;;;10.30;99.90;;;;;;4973330;28;21130;-49
2021/01/18 00:24:51;;;;;;;10.57;8.00;;;10.20;99.90;;;;;;4978974;28;20202;-50
2021/01/18 00:27:22;;;;;;;8.07;7.30;;;10.30;99.90;;;;;;4988626;28;20267;-52
2021/01/18 00:29:52;;;;;;;11.75;9.50;;;10.30;99.90;;;;;;4997293;28;20537;-53
2021/01/18 00:32:23;;;;;;;11.43;9.90;;;10.30;99.90;;;;;;4984641;28;20211;-47
2021/01/18 00:34:54;;;;;;;11.20;9.32;;;10.20;99.90;;;;;;4991508;28;20268;-47
2021/01/18 00:37:23;;;;;;;9.88;8.65;;;10.20;99.90;;;;;;4982772;28;20346;-51
2021/01/18 00:39:53;;;;;;;13.32;9.35;;;10.20;99.90;;;;;;4988340;28;20207;-49
2021/01/18 00:42:25;;;;;;;10.90;9.23;;;10.10;99.90;;;;;;4991945;28;20225;-50
2021/01/18 00:44:55;;;;;;;10.50;9.40;;;10.00;99.90;;;;;;4970319;28;20524;-50
2021/01/18 00:47:25;;;;;;;13.60;10.32;;;9.90;99.90;;;;;;4980256;28;20461;-51
2021/01/18 00:49:55;;;;;;;12.38;9.15;;;9.80;99.90;;;;;;4985636;28;20230;-50
2021/01/18 00:52:25;;;;;;;10.77;9.63;;;9.70;99.90;;;;;;4986000;28;20728;-52
2021/01/18 00:55:00;;;;;;;9.85;8.85;;;9.50;99.90;;;;;;4986552;28;20196;-50
2021/01/18 00:57:35;;;;;;;14.55;9.75;;;9.40;99.90;;;;;;4986025;28;20209;-52
2021/01/18 01:00:08;;;;;;;10.60;9.40;;;9.40;99.90;;;;;;4977465;28;20211;-51
2021/01/18 01:02:39;;;;;;;11.00;9.65;;;9.20;99.90;;;;;;4966833;28;20240;-46
2021/01/18 01:05:11;;;;;;;10.73;9.60;;;9.20;99.90;;;;;;4986097;28;20212;-50
2021/01/18 01:07:42;;;;;;;14.75;11.50;;;9.20;99.90;;;;;;4975680;28;20287;-51
2021/01/18 01:10:14;;;;;;;17.00;12.80;;;9.00;99.90;;;;;;4976589;28;20186;-49
2021/01/18 01:12:47;;;;;;;11.32;10.23;;;9.00;99.90;;;;;;4979879;28;20217;-47
2021/01/18 01:15:17;;;;;;;12.95;10.70;;;9.00;99.90;;;;;;4969953;28;20201;-48
2021/01/18 01:17:48;;;;;;;366.65;62.25;;;9.00;99.90;;;;;;4974644;28;20301;-50
2021/01/18 01:20:19;;;;;;;1991.82;353.42;;;9.00;99.90;;;;;;4986046;28;20208;-47
2021/01/18 01:22:50;;;;;;;16.15;10.90;;;9.00;99.90;;;;;;4995284;28;20222;-50
2021/01/18 01:25:21;;;;;;;12.48;11.25;;;9.00;99.90;;;;;;4982677;28;20583;-46
2021/01/18 01:27:52;;;;;;;12.52;10.68;;;8.90;99.90;;;;;;4976812;28;20205;-51
2021/01/18 01:30:24;;;;;;;11.63;10.43;;;8.80;99.90;;;;;;4980529;28;20205;-49
2021/01/18 01:32:55;;;;;;;13.77;10.73;;;8.70;99.90;;;;;;4983484;28;20213;-51
2021/01/18 01:35:27;;;;;;;16.00;11.45;;;8.70;99.90;;;;;;4970267;28;20347;-50
2021/01/18 01:37:58;;;;;;;13.23;11.85;;;8.60;99.90;;;;;;4980026;28;20225;-50
2021/01/18 01:40:28;;;;;;;13.52;11.55;;;8.60;99.90;;;;;;4974294;28;20200;-50
2021/01/18 01:43:00;;;;;;;10.88;9.77;;;8.60;99.90;;;;;;4983922;28;20201;-48
2021/01/18 01:45:30;;;;;;;13.43;9.55;;;8.70;99.90;;;;;;4984843;28;20212;-53
2021/01/18 01:48:01;;;;;;;12.18;9.45;;;8.70;99.90;;;;;;4986892;28;20208;-50
2021/01/18 01:50:36;;;;;;;10.73;9.60;;;8.60;99.90;;;;;;4989234;28;20201;-49
2021/01/18 01:53:13;;;;;;;14.50;10.20;;;8.50;99.90;;;;;;4976726;28;20209;-50
2021/01/18 01:55:44;;;;;;;13.82;11.32;;;8.50;99.90;;;;;;4975555;28;20200;-50
2021/01/18 01:58:16;;;;;;;13.23;11.23;;;8.40;99.90;;;;;;4981960;28;20198;-49
2021/01/18 02:00:47;;;;;;;12.20;9.98;;;8.30;99.90;;;;;;4984684;28;20261;-51
2021/01/18 02:03:22;;;;;;;11.48;10.27;;;8.30;99.90;;;;;;4979620;28;20209;-52
2021/01/18 02:05:53;;;;;;;14.35;10.40;;;8.30;99.90;;;;;;4995437;28;20238;-48
2021/01/18 02:08:24;;;;;;;12.65;10.85;;;8.30;99.90;;;;;;4980167;28;20292;-49
2021/01/18 02:10:54;;;;;;;11.52;9.85;;;8.20;99.90;;;;;;4974416;28;20648;-49
2021/01/18 02:13:37;;;;;;;13.13;10.88;;;8.10;99.90;;;;;;4980934;28;20196;-50
2021/01/18 02:16:18;;;;;;;13.98;10.95;;;8.10;99.90;;;;;;4970084;28;20213;-50
2021/01/18 02:19:18;;;;;;;12.95;11.18;;;8.00;99.90;;;;;;4984162;28;20200;-52
2021/01/18 02:22:20;;;;;;;12.70;10.85;;;8.00;99.90;;;;;;4973559;28;20228;-51
2021/01/18 02:25:19;;;;;;;14.30;12.07;;;8.00;99.90;;;;;;4988194;28;20208;-53
2021/01/18 02:28:18;;;;;;;17.55;12.63;;;7.90;99.90;;;;;;4990412;28;20577;-52
2021/01/18 02:31:23;;;;;;;23.70;21.20;;;8.00;99.90;;;;;;4982691;28;20227;-50
2021/01/18 02:34:32;;;;;;;30.73;24.23;;;8.10;99.90;;;;;;4977798;28;20201;-52
2021/01/18 02:37:34;;;;;;;33.17;29.60;;;8.10;99.90;;;;;;4978457;28;20232;-52
2021/01/18 02:40:12;;;;;;;42.97;35.20;;;8.00;99.90;;;;;;4969375;28;20265;-51
2021/01/18 02:42:49;;;;;;;37.17;33.30;;;8.10;99.90;;;;;;4965215;28;20531;-48
2021/01/18 02:45:20;;;;;;;39.60;33.00;;;8.10;99.90;;;;;;4983144;28;20196;-52
2021/01/18 02:47:51;;;;;;;41.40;33.90;;;8.20;99.90;;;;;;4977793;28;20205;-52
2021/01/18 02:50:22;;;;;;;46.17;38.78;;;8.20;99.90;;;;;;4998378;28;20231;-50
2021/01/18 02:52:54;;;;;;;45.42;39.30;;;8.20;99.90;;;;;;4980458;28;20549;-51
2021/01/18 02:55:24;;;;;;;34.78;31.08;;;8.30;99.90;;;;;;4967994;28;20261;-50
2021/01/18 02:57:55;;;;;;;34.72;30.83;;;8.40;99.90;;;;;;4968854;28;20312;-51
2021/01/18 03:00:30;;;;;;;39.88;33.95;;;8.40;99.90;;;;;;4968087;28;20209;-47
2021/01/18 03:03:07;;;;;;;38.05;34.05;;;8.40;99.90;;;;;;4982330;28;20216;-50
2021/01/18 03:05:44;;;;;;;42.95;34.75;;;8.50;99.90;;;;;;4977652;28;20196;-51
2021/01/18 03:08:29;;;;;;;41.10;36.70;;;8.60;99.90;;;;;;4977930;28;20201;-54
2021/01/18 03:11:04;;;;;;;41.75;36.72;;;8.70;99.90;;;;;;4983414;28;20233;-53
2021/01/18 03:13:38;;;;;;;45.97;41.22;;;8.60;99.90;;;;;;4983286;28;20201;-47
2021/01/18 03:16:15;;;;;;;43.35;38.65;;;8.60;99.90;;;;;;4978026;28;20442;-50
2021/01/18 03:18:47;;;;;;;42.45;37.40;;;8.60;99.90;;;;;;4987985;28;20211;-49
2021/01/18 03:21:18;;;;;;;39.60;35.22;;;8.80;99.90;;;;;;4978998;28;20228;-47
2021/01/18 03:23:49;;;;;;;1999.90;436.20;;;8.80;99.90;;;;;;4986032;28;20204;-47
2021/01/18 03:26:23;;;;;;;40.72;36.75;;;9.00;99.90;;;;;;4965146;28;20201;-48
2021/01/18 03:28:54;;;;;;;45.67;41.00;;;9.10;99.90;;;;;;4976363;28;20237;-46
2021/01/18 03:31:24;;;;;;;43.28;38.83;;;9.00;99.90;;;;;;4981926;28;20259;-47
2021/01/18 03:33:55;;;;;;;44.00;39.33;;;9.00;99.90;;;;;;4989535;28;20196;-52
2021/01/18 03:36:25;;;;;;;46.67;41.80;;;9.00;99.90;;;;;;4969632;28;20204;-50
2021/01/18 03:38:56;;;;;;;41.92;37.40;;;8.90;99.90;;;;;;4976711;28;20205;-50
2021/01/18 03:41:28;;;;;;;52.78;43.03;;;9.00;99.90;;;;;;4971249;28;20248;-47
2021/01/18 03:43:58;;;;;;;53.60;43.40;;;9.00;99.90;;;;;;4984116;28;20205;-46
2021/01/18 03:46:28;;;;;;;49.63;44.10;;;9.00;99.90;;;;;;4983187;28;20213;-46
2021/01/18 03:48:58;;;;;;;49.63;43.60;;;9.00;99.90;;;;;;4985906;28;20587;-46
2021/01/18 03:51:31;;;;;;;51.70;45.83;;;9.00;99.90;;;;;;4972684;28;20314;-48
2021/01/18 03:54:02;;;;;;;53.35;46.60;;;8.90;99.90;;;;;;4977779;28;20197;-51
2021/01/18 03:56:32;;;;;;;45.63;39.25;;;8.90;99.90;;;;;;4967209;28;20197;-51
2021/01/18 03:59:02;;;;;;;43.10;38.60;;;8.80;99.90;;;;;;4976778;28;20205;-48
2021/01/18 04:01:38;;;;;;;46.53;38.45;;;8.90;99.90;;;;;;4973621;28;20260;-48
2021/01/18 04:04:08;;;;;;;44.08;37.83;;;8.90;99.90;;;;;;4989119;28;20200;-47
2021/01/18 04:06:40;;;;;;;44.05;38.60;;;8.90;99.90;;;;;;4967902;28;20257;-47
2021/01/18 04:09:11;;;;;;;43.47;38.90;;;8.90;99.90;;;;;;4981703;28;20197;-47
2021/01/18 04:11:42;;;;;;;44.13;39.40;;;8.90;99.90;;;;;;4964915;28;20236;-47
2021/01/18 04:14:12;;;;;;;46.88;40.47;;;8.90;99.90;;;;;;4989353;28;20204;-52
2021/01/18 04:16:43;;;;;;;43.03;38.50;;;9.00;99.90;;;;;;4980881;28;20202;-47
2021/01/18 04:19:17;;;;;;;44.70;39.92;;;9.00;99.90;;;;;;4994917;28;20203;-49
2021/01/18 04:21:48;;;;;;;42.60;38.05;;;9.00;99.90;;;;;;4986257;28;20220;-48
2021/01/18 04:24:20;;;;;;;44.22;39.60;;;9.00;99.90;;;;;;4981964;28;20190;-48
2021/01/18 04:26:50;;;;;;;41.40;37.13;;;9.00;99.90;;;;;;4977435;28;20596;-47
2021/01/18 04:29:20;;;;;;;41.53;37.33;;;9.00;99.90;;;;;;4983244;28;20213;-48
2021/01/18 04:31:50;;;;;;;42.35;38.15;;;8.90;99.90;;;;;;4974770;28;20217;-46
2021/01/18 04:34:20;;;;;;;42.03;37.63;;;8.90;99.90;;;;;;4982403;28;20208;-48
2021/01/18 04:36:50;;;;;;;40.63;36.70;;;8.90;99.90;;;;;;4984339;28;20663;-47
2021/01/18 04:39:21;;;;;;;39.47;34.95;;;8.90;99.90;;;;;;4978827;28;20228;-48
2021/01/18 04:41:51;;;;;;;37.97;34.00;;;8.90;99.90;;;;;;4978874;28;20354;-46
2021/01/18 04:44:24;;;;;;;40.47;36.38;;;8.90;99.90;;;;;;4986194;28;20209;-50
2021/01/18 04:46:55;;;;;;;40.40;36.40;;;8.80;99.90;;;;;;4992566;28;20264;-48
2021/01/18 04:49:26;;;;;;;41.80;37.53;;;8.70;99.90;;;;;;4983307;28;20209;-46
2021/01/18 04:51:57;;;;;;;46.90;38.70;;;8.80;99.90;;;;;;4986269;28;20209;-47
2021/01/18 04:54:28;;;;;;;41.05;37.00;;;8.70;99.90;;;;;;4985934;28;20205;-47
2021/01/18 04:57:15;;;;;;;41.20;37.28;;;8.60;99.90;;;;;;4984555;28;20278;-48
2021/01/18 04:59:47;;;;;;;40.15;35.85;;;8.60;99.90;;;;;;4984349;28;20766;-48
2021/01/18 05:02:18;;;;;;;43.20;38.83;;;8.60;99.90;;;;;;4986191;28;20267;-46
2021/01/18 05:04:50;;;;;;;39.83;35.60;;;8.50;99.90;;;;;;4975102;28;20220;-49
2021/01/18 05:08:00;;;;;;;1873.63;350.63;;;8.40;99.90;;;;;;4981628;28;20204;-45
2021/01/18 05:10:33;;;;;;;823.17;167.52;;;8.40;99.90;;;;;;4979282;28;20299;-46
2021/01/18 05:13:05;;;;;;;194.55;69.32;;;8.30;99.90;;;;;;4987302;28;20204;-46
2021/01/18 05:15:36;;;;;;;1999.90;497.27;;;8.40;99.90;;;;;;4972147;28;20236;-46
2021/01/18 05:18:10;;;;;;;48.45;43.30;;;8.30;99.90;;;;;;4988522;28;20216;-49
2021/01/18 05:20:40;;;;;;;47.67;42.53;;;8.10;99.90;;;;;;4989285;28;20208;-48
2021/01/18 05:23:10;;;;;;;48.05;43.08;;;7.90;99.90;;;;;;4985374;28;20228;-48
2021/01/18 05:25:41;;;;;;;45.70;40.47;;;7.80;99.90;;;;;;4985824;28;20200;-47
2021/01/18 05:28:12;;;;;;;45.47;40.55;;;7.60;99.90;;;;;;4983701;28;20205;-46
2021/01/18 05:30:43;;;;;;;49.55;43.78;;;7.60;99.90;;;;;;4981385;28;20244;-50
2021/01/18 05:33:14;;;;;;;53.00;47.28;;;7.60;99.90;;;;;;4981007;28;20216;-50
2021/01/18 05:35:48;;;;;;;51.95;46.58;;;7.50;99.90;;;;;;4994241;28;20209;-47
2021/01/18 05:38:19;;;;;;;50.60;45.30;;;7.40;99.90;;;;;;4991324;28;20200;-48
2021/01/18 05:40:52;;;;;;;50.22;44.97;;;7.30;99.90;;;;;;4985100;28;20232;-47
2021/01/18 05:43:33;;;;;;;52.28;46.65;;;7.20;99.90;;;;;;4985318;28;20232;-51
2021/01/18 05:46:07;;;;;;;54.13;48.65;;;7.20;99.90;;;;;;4981660;28;20288;-48
2021/01/18 05:48:37;;;;;;;57.15;51.30;;;7.10;99.90;;;;;;4983013;28;20203;-46
2021/01/18 05:51:08;;;;;;;60.08;53.78;;;7.10;99.90;;;;;;4990223;28;20729;-52
2021/01/18 05:53:44;;;;;;;59.85;53.72;;;7.10;99.90;;;;;;4985172;28;20750;-49
2021/01/18 05:56:20;;;;;;;52.38;46.95;;;7.10;99.90;;;;;;4971920;28;20200;-50
2021/01/18 05:58:50;;;;;;;50.28;45.08;;;7.10;99.90;;;;;;4975245;28;20200;-51
2021/01/18 06:01:35;;;;;;;50.55;45.25;;;7.10;99.90;;;;;;4982558;28;20326;-51
2021/01/18 06:04:09;;;;;;;49.45;44.13;;;7.10;99.90;;;;;;4986081;28;20289;-44
2021/01/18 06:06:41;;;;;;;46.97;42.05;;;7.20;99.90;;;;;;4984259;28;20204;-49
2021/01/18 06:09:11;;;;;;;46.55;41.95;;;7.20;99.90;;;;;;4984993;28;20232;-51
2021/01/18 06:11:44;;;;;;;48.08;43.17;;;7.20;99.90;;;;;;4983608;28;20656;-48
2021/01/18 06:14:18;;;;;;;44.92;40.38;;;7.10;99.90;;;;;;4976649;28;20201;-50
2021/01/18 06:16:50;;;;;;;44.88;40.13;;;7.10;99.90;;;;;;4982829;28;20216;-49
2021/01/18 06:19:23;;;;;;;44.65;39.97;;;7.10;99.90;;;;;;4988750;28;20215;-50
2021/01/18 06:21:53;;;;;;;45.80;41.10;;;7.00;99.90;;;;;;4985153;28;20233;-51
2021/01/18 06:24:28;;;;;;;48.10;42.63;;;7.00;99.90;;;;;;4984729;28;20205;-51
2021/01/18 06:26:59;;;;;;;45.08;40.60;;;6.90;99.90;;;;;;4983638;28;20243;-50
2021/01/18 06:29:40;;;;;;;45.58;40.67;;;6.80;99.90;;;;;;4975935;28;20213;-48
2021/01/18 06:32:14;;;;;;;45.33;40.63;;;6.70;99.90;;;;;;4979456;28;20216;-50
2021/01/18 06:34:45;;;;;;;45.50;40.90;;;6.60;99.90;;;;;;4984068;28;20270;-49
2021/01/18 06:37:22;;;;;;;43.90;39.28;;;6.50;99.90;;;;;;4983873;28;20271;-51
2021/01/18 06:39:58;;;;;;;44.22;39.53;;;6.50;99.90;;;;;;4996279;28;20231;-48
2021/01/18 06:42:30;;;;;;;41.85;37.72;;;6.50;99.90;;;;;;4981077;28;20247;-51
2021/01/18 06:45:00;;;;;;;41.65;37.65;;;6.50;99.90;;;;;;4992403;28;20201;-48
2021/01/18 06:47:31;;;;;;;42.70;37.80;;;6.40;99.90;;;;;;4983988;28;20262;-45
2021/01/18 06:50:04;;;;;;;43.80;38.22;;;6.40;99.90;;;;;;4983451;28;20232;-50
2021/01/18 06:52:35;;;;;;;43.53;39.20;;;6.40;99.90;;;;;;4981304;28;20240;-44
2021/01/18 06:55:08;;;;;;;63.60;57.00;;;6.30;99.90;;;;;;4983544;28;20231;-46
2021/01/18 06:58:12;;;;;;;55.00;49.10;;;6.30;99.90;;;;;;4982894;28;20212;-46
2021/01/18 07:00:45;;;;;;;57.22;51.13;;;6.30;99.90;;;;;;4985485;28;20224;-49
2021/01/18 07:03:38;;;;;;;55.25;49.60;;;6.20;99.90;;;;;;4983591;28;20224;-48
2021/01/18 07:06:30;;;;;;;54.00;47.90;;;6.20;99.90;;;;;;4971782;28;20334;-47
2021/01/18 07:09:02;;;;;;;50.08;44.75;;;6.20;99.90;;;;;;4977902;28;20205;-49
2021/01/18 07:12:00;;;;;;;51.25;43.38;;;6.10;99.90;;;;;;4979821;28;20240;-50
2021/01/18 07:14:33;;;;;;;47.47;41.72;;;6.10;99.90;;;;;;4986771;28;20602;-47
2021/01/18 07:17:06;;;;;;;45.30;40.40;;;6.00;99.90;;;;;;4974873;28;20228;-50
2021/01/18 07:19:39;;;;;;;41.25;36.78;;;6.00;99.90;;;;;;4983997;28;20208;-49
2021/01/18 07:22:38;;;;;;;42.80;38.40;;;6.10;99.90;;;;;;4981789;28;20238;-51
2021/01/18 07:25:35;;;;;;;43.50;38.85;;;6.10;99.90;;;;;;4982582;28;20213;-46
2021/01/18 07:28:06;;;;;;;71.38;43.00;;;6.20;99.90;;;;;;4974126;28;20205;-47
2021/01/18 07:30:38;;;;;;;41.55;37.08;;;6.30;99.90;;;;;;4982547;28;20241;-47
2021/01/18 07:33:10;;;;;;;48.92;41.58;;;6.40;99.90;;;;;;4969895;28;20225;-50
2021/01/18 07:35:41;;;;;;;91.82;51.22;;;6.40;99.90;;;;;;4975021;28;20202;-48
2021/01/18 07:38:12;;;;;;;65.70;47.78;;;6.40;99.90;;;;;;4971561;28;20263;-51
2021/01/18 07:41:02;;;;;;;62.42;46.97;;;6.40;99.90;;;;;;4982717;28;20208;-48
2021/01/18 07:43:36;;;;;;;72.53;46.33;;;6.40;99.90;;;;;;4983921;28;20228;-49
2021/01/18 07:46:41;;;;;;;86.95;53.60;;;6.40;99.90;;;;;;4986235;28;20214;-47
2021/01/18 07:49:46;;;;;;;61.85;42.40;;;6.50;99.90;;;;;;4985239;28;20189;-46
2021/01/18 07:52:32;;;;;;;59.70;41.47;;;6.50;99.90;;;;;;4986412;28;20200;-48
2021/01/18 07:55:03;;;;;;;75.40;40.05;;;6.40;99.90;;;;;;4973425;28;20737;-45
2021/01/18 07:57:36;;;;;;;77.90;42.30;;;6.40;99.90;;;;;;4974335;28;20193;-45
2021/01/18 08:00:29;;;;;;;66.18;38.90;;;6.40;99.90;;;;;;4987709;28;20282;-48
2021/01/18 08:03:26;;;;;;;33.15;29.38;;;6.40;99.90;;;;;;4981666;28;20259;-49
2021/01/18 08:06:11;;;;;;;63.95;36.28;;;6.30;99.90;;;;;;4987490;28;20283;-49
2021/01/18 08:08:42;;;;;;;37.20;30.45;;;6.40;99.90;;;;;;4984896;28;20224;-46
2021/01/18 08:11:22;;;;;;;60.60;36.58;;;6.40;99.90;;;;;;4982318;28;20240;-46
2021/01/18 08:13:54;;;;;;;35.05;30.20;;;6.30;99.90;;;;;;4985690;28;20671;-48
2021/01/18 08:16:49;;;;;;;61.42;35.33;;;6.20;99.90;;;;;;4994197;28;20263;-44
2021/01/18 08:19:26;;;;;;;66.97;37.85;;;6.20;99.90;;;;;;4975766;28;20204;-46
2021/01/18 08:22:00;;;;;;;41.17;31.80;;;6.20;99.90;;;;;;4985280;28;20283;-46
2021/01/18 08:25:04;;;;;;;47.13;33.22;;;6.10;99.90;;;;;;4987054;28;20204;-47
2021/01/18 08:27:50;;;;;;;37.25;30.95;;;6.00;99.90;;;;;;4977173;28;20204;-44
2021/01/18 08:30:41;;;;;;;43.30;32.35;;;5.90;99.90;;;;;;4974488;28;20274;-47
2021/01/18 08:33:19;;;;;;;47.53;32.50;;;5.90;99.90;;;;;;4986289;28;20212;-48
2021/01/18 08:35:51;;;;;;;55.55;34.20;;;5.90;99.90;;;;;;4986762;28;20263;-48
2021/01/18 08:38:29;;;;;;;50.08;33.47;;;5.90;99.90;;;;;;4986955;28;20266;-48
2021/01/18 08:41:09;;;;;;;46.17;32.85;;;5.90;99.90;;;;;;4986995;28;20277;-48
2021/01/18 08:43:50;;;;;;;43.70;33.30;;;5.90;99.90;;;;;;4986916;28;20219;-48
2021/01/18 08:46:39;;;;;;;39.10;31.70;;;5.80;99.90;;;;;;4982592;28;20211;-50
2021/01/18 08:49:25;;;;;;;39.08;33.45;;;5.80;99.90;;;;;;4981965;28;20200;-50
2021/01/18 08:51:57;;;;;;;40.40;33.25;;;5.70;99.90;;;;;;4980620;28;20215;-46
2021/01/18 08:54:36;;;;;;;57.92;37.80;;;5.80;99.90;;;;;;4982233;28;20216;-50
2021/01/18 08:57:24;;;;;;;39.20;32.08;;;5.80;99.90;;;;;;4985615;28;20307;-51
2021/01/18 09:00:07;;;;;;;38.00;29.80;;;5.80;99.90;;;;;;4988458;28;20205;-47
2021/01/18 09:02:40;;;;;;;37.58;29.35;;;5.70;99.90;;;;;;4979631;28;20224;-47
2021/01/18 09:05:15;;;;;;;43.20;29.40;;;5.70;99.90;;;;;;4970933;28;20228;-51
2021/01/18 09:07:47;;;;;;;36.08;29.33;;;5.70;99.90;;;;;;4986208;28;20211;-48
2021/01/18 09:10:18;;;;;;;59.22;33.60;;;5.70;99.90;;;;;;4985805;28;20694;-48
2021/01/18 09:12:50;;;;;;;59.92;32.03;;;5.80;99.90;;;;;;4984339;28;21697;-48
2021/01/18 09:15:21;;;;;;;64.43;34.72;;;5.80;99.90;;;;;;4984776;28;20216;-45
2021/01/18 09:17:52;;;;;;;57.58;32.05;;;5.90;99.90;;;;;;4989794;28;20200;-50
2021/01/18 09:20:22;;;;;;;45.30;31.50;;;6.00;99.90;;;;;;4987046;28;20224;-48
2021/01/18 09:22:53;;;;;;;69.03;32.08;;;6.00;99.90;;;;;;4985117;28;20233;-48
2021/01/18 09:25:23;;;;;;;33.67;26.35;;;6.10;99.90;;;;;;4985453;28;20233;-48
2021/01/18 09:27:53;;;;;;;50.40;30.13;;;6.10;99.90;;;;;;4985310;28;20231;-51
2021/01/18 09:30:27;;;;;;;54.40;33.17;;;6.20;99.90;;;;;;4986061;28;20209;-49
2021/01/18 09:32:57;;;;;;;44.45;29.73;;;6.30;99.90;;;;;;4982250;28;20245;-47
2021/01/18 09:35:29;;;;;;;30.88;27.55;;;6.30;99.90;;;;;;4972926;28;20264;-51
2021/01/18 09:38:00;;;;;;;34.33;28.25;;;6.30;99.90;;;;;;4985800;28;20271;-50
2021/01/18 09:40:34;;;;;;;31.77;28.25;;;6.40;99.90;;;;;;4980583;28;20212;-48
2021/01/18 09:43:05;;;;;;;35.13;30.35;;;6.50;99.90;;;;;;4986514;28;20306;-49
2021/01/18 09:45:36;;;;;;;30.40;26.98;;;6.40;99.90;;;;;;4973757;28;20229;-50
2021/01/18 09:48:11;;;;;;;34.58;28.73;;;6.40;99.90;;;;;;4986347;28;20287;-50
2021/01/18 09:50:42;;;;;;;31.45;28.05;;;6.40;99.90;;;;;;4987100;28;20264;-50
2021/01/18 09:53:14;;;;;;;38.65;31.05;;;6.50;99.90;;;;;;4972453;28;20204;-46
2021/01/18 09:55:48;;;;;;;38.00;31.67;;;6.60;99.90;;;;;;4983670;28;20264;-48
2021/01/18 09:58:24;;;;;;;32.92;29.13;;;6.60;99.90;;;;;;4989995;28;20273;-47
2021/01/18 10:00:55;;;;;;;34.10;29.85;;;6.50;99.90;;;;;;4984839;28;20220;-45
2021/01/18 10:03:27;;;;;;;32.63;29.20;;;6.50;99.90;;;;;;4984073;28;20682;-47
2021/01/18 10:06:08;;;;;;;34.55;29.77;;;6.60;99.90;;;;;;4978002;28;20194;-51
2021/01/18 10:08:45;;;;;;;31.65;28.35;;;6.60;99.90;;;;;;4981201;28;20204;-50
2021/01/18 10:11:28;;;;;;;32.35;28.83;;;6.70;99.90;;;;;;4980852;28;20259;-51
2021/01/18 10:14:03;;;;;;;30.90;27.00;;;6.70;99.90;;;;;;4986095;28;20224;-46
2021/01/18 10:16:33;;;;;;;28.80;25.10;;;6.70;99.90;;;;;;4972501;28;20251;-48
2021/01/18 10:19:17;;;;;;;31.92;26.75;;;6.70;99.90;;;;;;4983719;28;20208;-48
2021/01/18 10:21:47;;;;;;;24.58;21.52;;;6.80;99.90;;;;;;4984535;28;20204;-49
2021/01/18 10:24:27;;;;;;;25.10;21.60;;;6.80;99.90;;;;;;4976848;28;20201;-48
2021/01/18 10:27:04;;;;;;;28.98;19.48;;;6.90;99.90;;;;;;4970260;28;20265;-50
2021/01/18 10:29:35;;;;;;;20.65;15.90;;;6.90;99.90;;;;;;4976676;28;20297;-51
2021/01/18 10:32:06;;;;;;;28.58;15.85;;;7.00;99.90;;;;;;4976510;28;20205;-46
2021/01/18 10:34:37;;;;;;;22.55;13.57;;;7.10;99.90;;;;;;4983634;28;20387;-45
2021/01/18 10:37:28;;;;;;;22.52;12.93;;;7.20;99.90;;;;;;4981922;28;20212;-44
2021/01/18 10:40:07;;;;;;;30.70;13.52;;;7.30;99.90;;;;;;4983764;28;20259;-48
2021/01/18 10:42:49;;;;;;;27.70;13.38;;;7.30;99.90;;;;;;4985205;28;20216;-47
2021/01/18 10:45:22;;;;;;;30.42;15.75;;;7.30;99.90;;;;;;4986455;28;20260;-44
2021/01/18 10:47:57;;;;;;;25.80;13.10;;;7.30;99.90;;;;;;4992732;28;20202;-46
2021/01/18 10:50:29;;;;;;;30.80;14.88;;;7.20;99.90;;;;;;4974040;28;20247;-49
2021/01/18 10:53:07;;;;;;;26.38;14.57;;;7.30;99.90;;;;;;4965147;28;20213;-49
2021/01/18 10:55:39;;;;;;;30.52;14.45;;;7.30;99.90;;;;;;4979596;28;20240;-45
2021/01/18 10:58:27;;;;;;;32.78;15.25;;;7.20;99.90;;;;;;4976915;28;20247;-46
2021/01/18 11:01:09;;;;;;;36.45;15.43;;;7.30;99.90;;;;;;4974393;28;20212;-50
2021/01/18 11:03:40;;;;;;;30.52;16.23;;;7.20;99.90;;;;;;4973945;28;20227;-49
2021/01/18 11:06:20;;;;;;;30.08;16.20;;;7.20;99.90;;;;;;4990962;28;20205;-47
2021/01/18 11:08:53;;;;;;;29.17;17.98;;;7.20;99.90;;;;;;4989217;28;20211;-45
2021/01/18 11:11:27;;;;;;;26.38;16.35;;;7.20;99.90;;;;;;5000272;28;20254;-47
2021/01/18 11:14:03;;;;;;;26.90;15.90;;;7.10;99.90;;;;;;4995727;28;20662;-48
2021/01/18 11:16:36;;;;;;;26.42;16.02;;;7.10;99.90;;;;;;4985376;28;20212;-47
2021/01/18 11:19:07;;;;;;;33.20;15.10;;;7.00;99.90;;;;;;4994621;28;20219;-47
2021/01/18 11:21:40;;;;;;;27.05;15.98;;;6.90;99.90;;;;;;4990368;28;20212;-47
2021/01/18 11:24:15;;;;;;;27.35;17.23;;;7.00;99.90;;;;;;4981764;28;20238;-50
2021/01/18 11:26:52;;;;;;;27.23;16.30;;;7.00;99.90;;;;;;4980568;28;20209;-45
2021/01/18 11:29:23;;;;;;;31.00;16.02;;;7.00;99.90;;;;;;4990343;28;20258;-48
2021/01/18 11:32:07;;;;;;;24.05;15.93;;;7.00;99.90;;;;;;4982678;28;20252;-48
2021/01/18 11:34:37;;;;;;;29.52;14.73;;;6.90;99.90;;;;;;4973284;28;20212;-45
2021/01/18 11:37:08;;;;;;;26.45;14.15;;;6.80;99.90;;;;;;4980326;28;20200;-47
2021/01/18 11:39:41;;;;;;;32.40;12.80;;;6.70;99.90;;;;;;4983903;28;20204;-50
2021/01/18 11:42:13;;;;;;;35.05;12.38;;;6.70;99.90;;;;;;4974547;28;20249;-49
2021/01/18 11:44:43;;;;;;;40.75;12.35;;;6.70;99.90;;;;;;4983198;28;20336;-47
2021/01/18 11:47:14;;;;;;;28.52;12.50;;;6.70;99.90;;;;;;4992284;28;20268;-49
2021/01/18 11:49:46;;;;;;;33.85;11.52;;;6.60;99.90;;;;;;4989546;28;20262;-49
2021/01/18 11:52:21;;;;;;;25.38;10.40;;;6.60;99.90;;;;;;4985184;28;20267;-46
2021/01/18 11:54:55;;;;;;;29.10;10.95;;;6.60;99.90;;;;;;4981452;28;20208;-49
2021/01/18 11:57:29;;;;;;;15.10;9.60;;;6.60;99.90;;;;;;4983548;28;20232;-49
2021/01/18 11:59:59;;;;;;;16.27;10.60;;;6.60;99.90;;;;;;4987276;28;20209;-46
2021/01/18 12:02:29;;;;;;;25.23;11.30;;;6.60;99.90;;;;;;4971981;28;20298;-47
2021/01/18 12:04:59;;;;;;;26.52;11.75;;;6.60;99.90;;;;;;4982033;28;21399;-46
2021/01/18 12:07:29;;;;;;;25.27;11.55;;;6.60;99.90;;;;;;4983518;28;20561;-48
2021/01/18 12:10:00;;;;;;;14.52;10.27;;;6.60;99.90;;;;;;4983014;28;20287;-44
2021/01/18 12:12:38;;;;;;;15.00;10.00;;;6.60;99.90;;;;;;4966965;28;20212;-48
2021/01/18 12:15:14;;;;;;;19.48;10.85;;;6.60;99.90;;;;;;4982937;28;20255;-48
2021/01/18 12:17:47;;;;;;;20.63;10.38;;;6.70;99.90;;;;;;4978723;28;20217;-49
2021/01/18 12:20:20;;;;;;;14.07;9.15;;;6.70;99.90;;;;;;4987566;28;20726;-50
2021/01/18 12:22:56;;;;;;;12.10;8.27;;;6.70;99.90;;;;;;4981458;28;20232;-47
2021/01/18 12:25:41;;;;;;;13.55;9.45;;;6.60;99.90;;;;;;4982592;28;20581;-47
2021/01/18 12:28:13;;;;;;;14.00;8.98;;;6.60;99.90;;;;;;4982278;28;20204;-49
2021/01/18 12:30:43;;;;;;;14.75;10.13;;;6.60;99.90;;;;;;4979430;28;20205;-48
2021/01/18 12:33:13;;;;;;;13.88;9.98;;;6.70;99.90;;;;;;4973487;28;20396;-48
2021/01/18 12:35:51;;;;;;;10.50;8.00;;;6.70;99.90;;;;;;4985309;28;20262;-50
2021/01/18 12:38:24;;;;;;;19.10;10.40;;;6.70;99.90;;;;;;4978146;28;20208;-48
2021/01/18 12:40:54;;;;;;;11.73;8.60;;;6.70;99.90;;;;;;5006139;28;20610;-46
2021/01/18 12:43:28;;;;;;;13.32;8.95;;;6.60;99.90;;;;;;4972246;28;20864;-50
2021/01/18 12:46:00;;;;;;;14.25;8.50;;;6.60;99.90;;;;;;4975733;28;20268;-49
2021/01/18 12:48:34;;;;;;;15.57;9.50;;;6.60;99.90;;;;;;4976534;28;20205;-45
2021/01/18 12:51:04;;;;;;;13.75;9.02;;;6.50;99.90;;;;;;4987136;28;20216;-50
2021/01/18 12:53:45;;;;;;;14.75;9.65;;;6.50;99.90;;;;;;5003213;28;20686;-45
2021/01/18 12:56:25;;;;;;;16.58;9.55;;;6.60;99.90;;;;;;5005259;28;20235;-47
2021/01/18 12:59:06;;;;;;;13.88;8.85;;;6.60;99.90;;;;;;4981839;28;20216;-47
2021/01/18 13:01:41;;;;;;;17.40;10.38;;;6.70;99.90;;;;;;4991757;28;20218;-47
2021/01/18 13:04:16;;;;;;;15.98;10.30;;;6.70;99.90;;;;;;4972826;28;20327;-49
2021/01/18 13:06:48;;;;;;;14.48;8.77;;;6.80;99.90;;;;;;4985240;28;20259;-47
2021/01/18 13:09:19;;;;;;;14.43;8.40;;;6.70;99.90;;;;;;4992374;28;20265;-49
2021/01/18 13:11:53;;;;;;;15.73;9.30;;;6.60;99.90;;;;;;4965996;28;20694;-50
2021/01/18 13:14:25;;;;;;;12.88;9.30;;;6.60;99.90;;;;;;4983765;28;20211;-48
2021/01/18 13:17:01;;;;;;;15.68;8.45;;;6.60;99.90;;;;;;4981802;28;20347;-47
2021/01/18 13:19:34;;;;;;;10.75;8.73;;;6.60;99.90;;;;;;4989116;28;20366;-50